• Join FlightAware (Why Join?)
  • Login
  • US Flag 
07:44AM EDT


 

Airport Tracker/Info


-or-


 

Live Flight TrackerFlight Track Log ✈ SKW6524 ✈ 27-Apr-2013 ✈ KDEN - CYQR

Flight Track Log - Related Links

Times and Time Zones

All times are in EDT time to prevent confusion due to time zone crossing. See the SKW6524 flight status page for this flight to view local times or setup timezone preferences in your user account.

Time Position Orientation Groundspeed Altitude Reporting Facility
EDT Latitude Longitude Course Direction KTS MPH feet Rate Location/Type
09:27PM 39.9667 -104.6667 348° North 226 260 7,600  Level Denver TRACON
09:28PM 40.0089 -104.6664 360° North 256 295 8,500 1,740 Climbing Denver Center
09:29PM 40.2754 -104.8043 347° North  Level FlightAware Approximate
09:29PM 40.0861 -104.6661 360° North 275 316 10,600  Level Denver Center
09:30PM 40.3820 -104.8384 346° North  Level FlightAware Approximate
09:30PM 40.1703 -104.6889 348° North 286 329 12,900  Level Denver Center
09:31PM 40.4884 -104.8739 346° North  Level FlightAware Approximate
09:31PM 40.2492 -104.7089 349° North 288 331 14,900  Level Denver Center
09:32PM 40.5954 -104.9058 348° North  Level FlightAware Approximate
09:32PM 40.3386 -104.7314 349° North 336 387 15,800  Level Denver Center
09:33PM 40.4389 -104.7592 348° North 343 395 17,400 1,380 Climbing Denver Center
09:34PM 40.5353 -104.7697 355° North 353 406 18,700 1,140 Climbing Denver Center
09:35PM 40.6342 -104.7614 North 356 410 19,800 1,140 Climbing Denver Center
09:36PM 40.7422 -104.7542 North 361 415 21,100 1,260 Climbing Denver Center
09:37PM 40.8397 -104.7483 North 360 414 22,500 1,200 Climbing Denver Center
09:38PM 40.9408 -104.7397 North 360 414 23,600 960 Climbing Denver Center
09:39PM 41.0472 -104.7261 North 366 421 24,500 780 Climbing Denver Center
09:40PM 41.1450 -104.7175 North 367 422 25,300 780 Climbing Denver Center
09:41PM 41.2622 -104.7106 North 375 432 26,200 720 Climbing Denver Center
09:42PM 41.3625 -104.7033 North 377 434 26,800 600 Climbing Denver Center
09:43PM 41.4644 -104.6961 North 382 440 27,500 660 Climbing Denver Center
09:44PM 41.5833 -104.6858 North 383 441 28,200 480 Climbing Denver Center
09:45PM 41.6869 -104.6775 North 387 445 28,600 900 Climbing Denver Center
09:46PM 41.8042 -104.6678 North 379 436 30,100 1,020 Climbing Denver Center
09:47PM 41.9025 -104.6611 North 370 426 30,700 480 Climbing Denver Center
09:48PM 42.0014 -104.6522 North 371 427 31,200 600 Climbing Denver Center
09:49PM 42.1161 -104.6431 North 368 423 32,000 360 Climbing Denver Center
09:50PM 42.2153 -104.6350 North 372 428 32,000  Level Denver Center
09:51PM 42.3347 -104.6250 North 383 441 32,000  Level Denver Center
09:52PM 42.4367 -104.6164 North 385 443 32,000  Level Denver Center
09:53PM 42.5467 -104.6069 North 388 447 32,000  Level Denver Center
09:54PM 42.6550 -104.5981 North 396 456 32,000  Level Denver Center
09:55PM 42.7781 -104.5883 North 396 456 32,000  Level Denver Center
09:56PM 42.8842 -104.5800 North 398 458 32,000  Level Denver Center
09:57PM 42.9908 -104.5708 North 399 459 32,000  Level Denver Center
09:58PM 43.1150 -104.5597 North 400 460 32,000  Level Denver Center
09:59PM 43.2222 -104.5497 North 402 463 32,000  Level Denver Center
10:00PM 43.3467 -104.5389 North 401 461 32,000  Level Denver Center
10:01PM 43.4544 -104.5300 North 404 465 32,000  Level Denver Center
10:02PM 43.5614 -104.5206 North 403 464 32,000  Level Denver Center
10:04PM 43.7047 -104.5089 North 403 464 32,000  Level Denver Center
10:05PM 43.8122 -104.4983 North 404 465 32,000  Level Denver Center
10:06PM 43.9372 -104.4897 North 402 463 32,000  Level Denver Center
10:07PM 44.0444 -104.4794 North 403 464 32,000  Level Denver Center
10:08PM 44.1519 -104.4708 North 404 465 32,000  Level Denver Center
10:09PM 44.2950 -104.4583 North 404 465 32,000  Level Denver Center
10:10PM 44.4031 -104.4492 North 406 467 32,000  Level Denver Center
10:11PM 44.5281 -104.4378 North 404 465 32,000  Level Denver Center
10:12PM 44.6361 -104.4286 North 405 466 32,000  Level Denver Center
10:13PM 44.7631 -104.4183 North 408 470 32,000  Level Denver Center
10:14PM 44.8708 -104.4081 North 404 465 32,000  Level Denver Center
10:15PM 44.9789 -104.3975 North 406 467 32,000  Level Denver Center
10:16PM 45.0986 -104.3867 North 407 468 32,000  Level Denver Center
10:17PM 45.1961 -104.3778 North 407 468 32,000  Level Salt Lake Center
10:18PM 45.3125 -104.3664 North 407 468 32,000  Level Salt Lake Center
10:19PM 45.4261 -104.3567 North 409 471 32,000  Level Salt Lake Center
10:20PM 45.5411 -104.3458 North 414 476 32,000  Level Salt Lake Center
10:21PM 45.6558 -104.3375 North 414 476 32,000  Level Salt Lake Center
10:22PM 45.7706 -104.3247 North 413 475 32,000  Level Salt Lake Center
10:23PM 45.8844 -104.3147 North 411 473 32,000  Level Salt Lake Center
10:24PM 45.9994 -104.3028 North 412 474 32,000  Level Salt Lake Center
10:25PM 46.1150 -104.2919 North 415 478 32,000  Level Salt Lake Center
10:26PM 46.2311 -104.2819 North 417 480 32,000  Level Salt Lake Center
10:27PM 46.3681 -104.2683 North 413 475 32,000  Level Salt Lake Center
10:28PM 46.4847 -104.2581 North 417 480 32,000  Level Salt Lake Center
10:29PM 46.5994 -104.2464 North 415 478 32,000  Level Salt Lake Center
10:30PM 46.7147 -104.2350 North 416 479 32,000  Level Salt Lake Center
10:31PM 46.8308 -104.2239 North 417 480 32,000  Level Salt Lake Center
10:32PM 46.9469 -104.2139 North 417 480 32,000  Level Salt Lake Center
10:33PM 47.0631 -104.2039 North 418 481 32,000  Level Salt Lake Center
10:34PM 47.1792 -104.1936 North 418 481 32,000  Level Salt Lake Center
10:35PM 47.2933 -104.1808 North 416 479 32,000  Level Salt Lake Center
10:36PM 47.4075 -104.1700 North 413 475 32,000  Level Salt Lake Center
10:37PM 47.5219 -104.1592 North 411 473 32,000  Level Salt Lake Center
10:38PM 47.6375 -104.1489 North 411 473 32,000  Level Salt Lake Center
10:39PM 47.7517 -104.1378 North 409 471 32,000  Level Salt Lake Center
10:40PM 47.8664 -104.1267 North 409 471 32,000  Level Salt Lake Center
10:41PM 48.0031 -104.1128 North 408 470 32,000  Level Salt Lake Center
10:42PM 48.1158 -104.1000 North 407 468 32,000  Level Salt Lake Center
10:43PM 48.2283 -104.0908 North 406 467 32,000  Level Salt Lake Center
10:44PM 48.3419 -104.0781 North 407 468 32,000  Level Salt Lake Center
10:45PM 48.4550 -104.0669 North 407 468 32,000  Level Salt Lake Center
10:46PM 48.5692 -104.0561 North 409 471 32,000  Level Salt Lake Center
10:47PM 48.6814 -104.0458 North 408 470 32,000  Level Salt Lake Center
10:48PM 48.7944 -104.0350 North 407 468 32,000  Level Salt Lake Center
10:49PM 48.8833 -104.0500 354° North 410 472 32,000  Level Winnipeg Center
10:50PM 49.0000 -104.0167 11° North 410 472 32,000  Level Winnipeg Center
10:51PM 49.1000 -104.0167 360° North 410 472 32,000  Level Winnipeg Center
10:52PM 49.2333 -103.9833 North 410 472 32,000  Level Winnipeg Center
10:53PM 49.3500 -104.0000 355° North 410 472 32,000 -420 Level Winnipeg Center
10:54PM 49.4333 -104.0667 333° Northwest 380 437 31,200 -1,920 Descending Winnipeg Center
10:55PM 49.5333 -104.1333 337° Northwest 400 460 28,200 -2,940 Descending Winnipeg Center
10:56PM 49.6500 -104.2000 340° North 430 495 25,400 -3,000 Descending Winnipeg Center
10:57PM 49.7667 -104.2833 335° Northwest 430 495 22,200 -3,060 Descending Winnipeg Center
10:58PM 49.8833 -104.3500 340° North 420 483 19,300 -3,180 Descending Winnipeg Center
10:59PM 49.9667 -104.4167 333° Northwest 390 449 15,900 -3,180 Descending Winnipeg Center
11:00PM 50.0500 -104.5000 327° Northwest 370 426 13,000 -2,460 Descending Winnipeg Center
11:01PM 50.1333 -104.6000 322° Northwest 350 403 11,000 -1,620 Descending Winnipeg Center
11:02PM 50.2000 -104.6333 342° North 290 334 9,800 -1,500 Descending Winnipeg Center
11:03PM 50.2500 -104.7000 320° Northwest 270 311 8,100 -2,280 Descending Winnipeg Center
11:04PM 50.3167 -104.7667 327° Northwest 250 288 5,300 -1,620 Descending Winnipeg Center
11:05PM 50.3833 -104.8000 342° North 230 265 4,900 -660 Descending Winnipeg Center
11:06PM 50.4167 -104.8500 316° Northwest 200 230 4,000 -900 Descending Winnipeg Center